Time;durP1;ratioP1;P1;durP2;ratioP2;P2;SDS_P1;SDS_P2;PMS_P1;PMS_P2;Temp;Humidity;BMP_temperature;BMP_pressure;BME280_temperature;BME280_humidity;BME280_pressure;Samples;Min_cycle;Max_cycle;Signal;HPM_P1;HPM_P2
2022/05/17 00:01:16;;;;;;;10.52;9.48;;;17.50;99.90;;;-141.84;96.85;17046.75;5072194;28;20628;-66
2022/05/17 00:03:45;;;;;;;9.68;8.77;;;17.60;99.90;;;-141.84;97.34;17034.56;5072422;28;20489;-64
2022/05/17 00:06:13;;;;;;;10.43;9.07;;;17.50;99.90;;;-141.84;98.25;17006.13;5071928;28;20205;-64
2022/05/17 00:08:41;;;;;;;10.27;9.18;;;17.50;99.90;;;-141.84;97.71;17030.50;5072186;28;20197;-65
2022/05/17 00:11:10;;;;;;;10.82;9.80;;;17.40;99.90;;;-141.84;97.35;16989.88;5072141;28;20604;-64
2022/05/17 00:13:38;;;;;;;10.57;9.57;;;17.40;99.90;;;-141.84;97.36;17030.50;5072081;28;20663;-65
2022/05/17 00:16:06;;;;;;;10.20;9.25;;;17.40;99.90;;;-141.84;96.87;17060.97;5071786;28;20695;-66
2022/05/17 00:18:37;;;;;;;9.60;8.43;;;17.40;99.90;;;-141.84;96.71;17014.25;5072211;28;20201;-64
2022/05/17 00:21:05;;;;;;;9.95;9.05;;;17.40;99.90;;;-141.84;96.58;17010.19;5071834;28;20185;-65
2022/05/17 00:23:36;;;;;;;9.45;8.40;;;17.40;99.90;;;-141.84;97.25;17056.91;5071894;28;20316;-64
2022/05/17 00:26:07;;;;;;;10.18;9.15;;;17.40;99.90;;;-141.84;97.46;16983.78;5072249;28;20200;-64
2022/05/17 00:28:37;;;;;;;10.15;8.68;;;17.40;99.90;;;-141.84;97.96;16987.84;5072070;28;20203;-65
2022/05/17 00:31:07;;;;;;;10.10;9.10;;;17.30;99.90;;;-141.84;98.00;16973.63;5071770;28;20207;-65
2022/05/17 00:33:36;;;;;;;10.13;8.95;;;17.30;99.90;;;-141.84;97.38;17010.19;5071931;28;20201;-65
2022/05/17 00:36:06;;;;;;;9.88;8.90;;;17.40;99.90;;;-141.84;99.07;16949.28;5071522;28;20204;-64
2022/05/17 00:38:34;;;;;;;11.18;9.98;;;17.30;99.90;;;-141.84;99.84;16906.63;5071202;28;20698;-64
2022/05/17 00:41:02;;;;;;;12.02;10.68;;;17.30;99.90;;;-141.84;100.00;16943.19;5071858;28;20235;-63
2022/05/17 00:44:42;;;;;;;13.45;10.75;;;17.20;99.90;;;-141.84;100.00;16957.41;5071337;28;20234;-64
2022/05/17 00:46:30;;;;;;;12.88;11.52;;;17.20;99.90;;;-141.84;100.00;16888.34;5071355;28;20235;-65
2022/05/17 00:49:01;;;;;;;12.65;11.32;;;17.10;99.90;;;-141.84;100.00;16922.88;5071475;28;20184;-65
2022/05/17 00:51:31;;;;;;;12.60;11.40;;;17.00;99.90;;;-141.84;100.00;16884.28;5071219;28;20185;-64
2022/05/17 00:54:16;;;;;;;14.30;11.70;;;17.00;99.90;;;-141.84;100.00;16922.88;5071538;28;20212;-64
2022/05/17 00:56:55;;;;;;;12.88;11.52;;;17.00;99.90;;;-141.84;100.00;16888.34;5071605;28;20287;-65
2022/05/17 00:59:25;;;;;;;15.00;13.45;;;16.90;99.90;;;-141.84;100.00;16916.78;5071219;28;20187;-64
2022/05/17 01:01:54;;;;;;;14.88;13.40;;;16.90;99.90;;;-141.84;100.00;16920.84;5071276;28;20276;-65
2022/05/17 01:04:26;;;;;;;16.38;14.63;;;16.90;99.90;;;-141.84;100.00;16928.97;5071291;28;20307;-63
2022/05/17 01:07:02;;;;;;;15.57;14.13;;;16.90;99.90;;;-141.84;100.00;16894.44;5071146;28;20669;-64
2022/05/17 01:09:30;;;;;;;16.05;14.55;;;17.00;99.90;;;-141.84;100.00;16878.19;5071253;28;20223;-64
2022/05/17 01:11:58;;;;;;;15.30;13.80;;;16.90;99.90;;;-141.84;100.00;16892.41;5071512;28;20282;-64
2022/05/17 01:17:11;;;;;;;15.52;13.60;;;16.90;99.90;;;-141.84;100.00;16890.38;5061167;28;20204;-64
2022/05/17 01:19:42;;;;;;;14.43;13.10;;;16.80;99.90;;;-141.84;100.00;16892.41;5070972;28;20806;-63
2022/05/17 01:22:11;;;;;;;12.93;11.65;;;16.80;99.90;;;-141.84;100.00;16866.00;5073003;28;20181;-63
2022/05/17 01:24:40;;;;;;;12.68;11.48;;;16.80;99.90;;;-141.84;100.00;16859.91;5075371;28;20566;-63
2022/05/17 01:27:18;;;;;;;12.40;11.30;;;16.80;99.90;;;-141.84;100.00;16863.97;5075132;28;20207;-65
2022/05/17 01:29:49;;;;;;;12.57;11.38;;;16.80;99.90;;;-141.84;100.00;16863.97;5075270;28;20207;-63
2022/05/17 01:32:17;;;;;;;11.88;10.77;;;16.70;99.90;;;-141.84;99.52;16874.13;5075315;28;20276;-64
2022/05/17 01:34:46;;;;;;;12.50;11.20;;;16.80;99.90;;;-141.84;100.00;16908.66;5075232;28;20302;-65
2022/05/17 01:37:17;;;;;;;12.18;11.07;;;16.80;99.90;;;-141.84;100.00;16878.19;5074733;28;20640;-65
2022/05/17 01:39:45;;;;;;;11.40;10.30;;;16.70;99.90;;;-141.84;100.00;16839.59;5074771;28;20208;-66
2022/05/17 01:42:15;;;;;;;12.38;11.27;;;16.70;99.90;;;-141.84;100.00;16900.53;5074848;28;20664;-65
2022/05/17 01:44:45;;;;;;;14.05;12.65;;;16.70;99.90;;;-141.84;100.00;16863.97;5075020;28;20204;-64
2022/05/17 01:47:14;;;;;;;13.02;11.80;;;16.70;99.90;;;-141.84;100.00;16863.97;5075023;28;20315;-64
2022/05/17 01:49:42;;;;;;;13.50;12.20;;;16.60;99.90;;;-141.84;100.00;16870.06;5074666;28;20582;-64
2022/05/17 01:52:11;;;;;;;13.63;12.35;;;16.60;99.90;;;-141.84;100.00;16866.00;5074885;28;20205;-64
2022/05/17 01:54:40;;;;;;;11.70;10.70;;;16.70;99.90;;;-141.84;100.00;16890.38;5074709;28;20272;-65
2022/05/17 01:57:08;;;;;;;13.32;12.00;;;16.70;99.90;;;-141.84;100.00;16902.56;5074601;28;20707;-64
2022/05/17 01:59:37;;;;;;;11.45;10.32;;;16.70;99.90;;;-141.84;100.00;16851.78;5074817;28;20243;-64
2022/05/17 02:02:06;;;;;;;12.13;10.10;;;16.60;99.90;;;-141.84;100.00;16849.75;5074476;28;20300;-64
2022/05/17 02:04:34;;;;;;;9.85;8.98;;;16.70;99.90;;;-141.84;100.00;16870.06;5074588;28;20706;-63
2022/05/17 02:07:02;;;;;;;10.18;9.27;;;16.60;99.90;;;-141.84;100.00;16878.19;5074559;28;20283;-64
2022/05/17 02:09:30;;;;;;;11.05;10.00;;;16.50;99.90;;;-141.84;100.00;16888.34;5074453;28;20208;-66
2022/05/17 02:11:59;;;;;;;11.25;10.18;;;16.50;99.90;;;-141.84;100.00;16868.03;5074116;28;20291;-64
2022/05/17 02:14:27;;;;;;;11.40;10.40;;;16.40;99.90;;;-141.84;100.00;16863.97;5074270;28;20280;-64
2022/05/17 02:16:55;;;;;;;12.43;11.38;;;16.40;99.90;;;-141.84;100.00;16872.09;5074568;28;20296;-64
2022/05/17 02:19:24;;;;;;;13.07;11.95;;;16.40;99.90;;;-141.84;100.00;16855.84;5074511;28;20224;-64
2022/05/17 02:21:52;;;;;;;14.20;12.93;;;16.40;99.90;;;-141.84;100.00;16851.78;5074227;28;20229;-65
2022/05/17 02:24:20;;;;;;;14.68;13.18;;;16.50;99.90;;;-141.84;100.00;16884.28;5073685;28;20861;-65
2022/05/17 02:26:49;;;;;;;15.50;14.05;;;16.60;99.90;;;-141.84;100.00;16866.00;5074274;28;20295;-64
2022/05/17 02:29:18;;;;;;;16.38;14.77;;;16.50;99.90;;;-141.84;100.00;16870.06;5074188;28;20231;-64
2022/05/17 02:31:46;;;;;;;17.88;16.27;;;16.50;99.90;;;-141.84;100.00;16888.34;5074160;28;20577;-64
2022/05/17 02:34:14;;;;;;;18.83;17.20;;;16.50;99.90;;;-141.84;100.00;16892.41;5073723;28;20208;-64
2022/05/17 02:36:42;;;;;;;19.98;18.08;;;16.50;99.90;;;-141.84;100.00;16841.63;5073848;28;20236;-63
2022/05/17 02:39:10;;;;;;;19.92;18.08;;;16.50;99.90;;;-141.84;100.00;16863.97;5073825;28;20215;-64
2022/05/17 02:41:38;;;;;;;20.00;18.10;;;16.40;99.90;;;-141.84;100.00;16908.66;5074011;28;20236;-64
2022/05/17 02:44:06;;;;;;;19.90;17.92;;;16.40;99.90;;;-141.84;100.00;16855.84;5073566;28;20240;-64
2022/05/17 02:46:35;;;;;;;20.85;18.80;;;16.40;99.90;;;-141.84;100.00;16866.00;5074077;28;20207;-64
2022/05/17 02:49:07;;;;;;;20.00;18.15;;;16.40;99.90;;;-141.84;100.00;16882.25;5073898;28;20299;-64
2022/05/17 02:51:36;;;;;;;19.48;17.58;;;16.30;99.90;;;-141.84;100.00;16851.78;5073868;28;20185;-65
2022/05/17 02:54:06;;;;;;;18.83;16.98;;;16.40;99.90;;;-141.84;100.00;16876.16;5073582;28;20228;-64
2022/05/17 02:56:34;;;;;;;19.00;17.10;;;16.30;99.90;;;-141.84;100.00;16833.50;5073410;28;20182;-64
2022/05/17 02:59:02;;;;;;;18.75;16.85;;;16.30;99.90;;;-141.84;100.00;16866.00;5073664;28;20236;-63
2022/05/17 03:01:30;;;;;;;17.52;15.82;;;16.30;99.90;;;-141.84;100.00;16863.97;5073627;28;20318;-64
2022/05/17 03:04:00;;;;;;;17.00;15.18;;;16.30;99.90;;;-141.84;100.00;16839.59;5073505;28;20311;-63
2022/05/17 03:06:28;;;;;;;17.90;16.02;;;16.30;99.90;;;-141.84;100.00;16859.91;5073394;28;20248;-64
2022/05/17 03:08:56;;;;;;;17.23;15.50;;;16.30;99.90;;;-141.84;100.00;16835.53;5073277;28;20227;-63
2022/05/17 03:11:25;;;;;;;16.58;14.90;;;16.30;99.90;;;-141.84;100.00;16886.31;5073237;28;20671;-64
2022/05/17 03:13:53;;;;;;;16.40;14.80;;;16.30;99.90;;;-141.84;100.00;16855.84;5073393;28;20287;-63
2022/05/17 03:16:21;;;;;;;15.23;13.70;;;16.40;99.90;;;-141.84;100.00;16819.28;5073290;28;20264;-63
2022/05/17 03:18:50;;;;;;;15.70;14.15;;;16.30;99.90;;;-141.84;100.00;16841.63;5073132;28;20223;-63
2022/05/17 03:21:19;;;;;;;15.43;13.88;;;16.30;99.90;;;-141.84;100.00;16829.44;5072832;28;20679;-64
2022/05/17 03:23:47;;;;;;;15.05;13.63;;;16.30;99.90;;;-141.84;100.00;16825.38;5072684;28;20211;-63
2022/05/17 03:26:15;;;;;;;14.55;13.15;;;16.30;99.90;;;-141.84;100.00;16827.41;5072993;28;20738;-64
2022/05/17 03:28:45;;;;;;;15.43;13.90;;;16.30;99.90;;;-141.84;100.00;16847.72;5073346;28;20582;-64
2022/05/17 03:31:14;;;;;;;13.95;12.48;;;16.30;99.90;;;-141.84;100.00;16835.53;5073005;28;20283;-64
2022/05/17 03:33:42;;;;;;;14.35;13.05;;;16.30;99.90;;;-141.84;100.00;16857.88;5072697;28;20557;-63
2022/05/17 03:36:11;;;;;;;12.95;11.75;;;16.30;99.90;;;-141.84;100.00;16833.50;5072819;28;20600;-65
2022/05/17 03:38:40;;;;;;;14.50;13.10;;;16.30;99.90;;;-141.84;100.00;16823.34;5071999;28;20679;-64
2022/05/17 03:41:08;;;;;;;15.07;13.55;;;16.30;99.90;;;-141.84;100.00;16841.63;5072687;28;20615;-64
2022/05/17 03:43:37;;;;;;;14.50;13.13;;;16.20;99.90;;;-141.84;100.00;16823.34;5072428;28;20291;-65
2022/05/17 03:46:08;;;;;;;13.73;12.43;;;16.20;99.90;;;-141.84;100.00;16817.25;5071794;28;20638;-64
2022/05/17 03:48:37;;;;;;;13.45;12.15;;;16.20;99.90;;;-141.84;100.00;16855.84;5072751;28;20180;-63
2022/05/17 03:51:13;;;;;;;14.23;12.82;;;16.20;99.90;;;-141.84;100.00;16859.91;5072362;28;20274;-64
2022/05/17 03:53:43;;;;;;;14.52;12.20;;;16.20;99.90;;;-141.84;100.00;16833.50;5072173;28;20191;-65
2022/05/17 03:56:11;;;;;;;13.95;12.45;;;16.20;99.90;;;-141.84;100.00;16811.16;5072458;28;20216;-65
2022/05/17 03:58:40;;;;;;;13.57;12.32;;;16.20;99.90;;;-141.84;100.00;16792.91;5072186;28;20684;-65
2022/05/17 04:01:08;;;;;;;12.55;11.35;;;16.20;99.90;;;-141.84;100.00;16819.28;5072188;28;20197;-63
2022/05/17 04:03:37;;;;;;;12.48;11.27;;;16.30;99.90;;;-141.84;100.00;16827.41;5072330;28;20224;-64
2022/05/17 04:06:05;;;;;;;13.40;12.00;;;16.30;99.90;;;-141.84;100.00;16847.72;5072174;28;20629;-64
2022/05/17 04:08:34;;;;;;;12.35;11.05;;;16.20;99.90;;;-141.84;100.00;16831.47;5071992;28;20278;-63
2022/05/17 04:11:04;;;;;;;13.07;11.70;;;16.30;99.90;;;-141.84;100.00;16837.56;5072169;28;20501;-63
2022/05/17 04:13:32;;;;;;;13.88;12.45;;;16.20;99.90;;;-141.84;100.00;16799.00;5072166;28;20638;-64
2022/05/17 04:16:02;;;;;;;13.00;11.70;;;16.20;99.90;;;-141.84;100.00;16847.72;5071830;28;20197;-64
2022/05/17 04:18:30;;;;;;;12.82;11.52;;;16.20;99.90;;;-141.84;100.00;16821.31;5072052;28;20196;-64
2022/05/17 04:20:59;;;;;;;13.10;11.75;;;16.20;99.90;;;-141.84;100.00;16835.53;5072253;28;20205;-64
2022/05/17 04:23:29;;;;;;;14.60;13.23;;;16.30;99.90;;;-141.84;100.00;16835.53;5071581;28;20259;-63
2022/05/17 04:25:57;;;;;;;14.77;13.27;;;16.30;99.90;;;-141.84;100.00;16847.72;5071609;28;20224;-64
2022/05/17 04:28:26;;;;;;;13.40;12.10;;;16.30;99.90;;;-141.84;100.00;16813.19;5071600;28;20303;-63
2022/05/17 04:30:55;;;;;;;14.13;12.73;;;16.30;99.90;;;-141.84;100.00;16853.81;5072031;28;20211;-63
2022/05/17 04:33:23;;;;;;;13.65;12.27;;;16.30;99.90;;;-141.84;100.00;16825.38;5071728;28;20244;-63
2022/05/17 04:35:52;;;;;;;14.45;12.98;;;16.30;99.90;;;-141.84;100.00;16790.88;5071560;28;20200;-63
2022/05/17 04:38:20;;;;;;;13.43;12.13;;;16.30;99.90;;;-141.84;100.00;16801.03;5071124;28;20680;-63
2022/05/17 04:40:48;;;;;;;13.82;12.52;;;16.30;99.90;;;-141.84;100.00;16801.03;5071417;28;20195;-63
2022/05/17 04:43:16;;;;;;;15.32;13.73;;;16.30;99.90;;;-141.84;100.00;16809.13;5071849;28;20287;-62
2022/05/17 04:45:45;;;;;;;14.50;13.02;;;16.30;99.90;;;-141.84;100.00;16796.97;5071483;28;20236;-64
2022/05/17 04:48:14;;;;;;;12.68;11.45;;;16.30;99.90;;;-141.84;100.00;16821.31;5071911;28;20201;-63
2022/05/17 04:50:42;;;;;;;13.55;12.20;;;16.30;99.90;;;-141.84;100.00;16841.63;5071537;28;20211;-63
2022/05/17 04:53:10;;;;;;;15.45;12.30;;;16.30;99.90;;;-141.84;100.00;16788.84;5071239;28;20291;-63
2022/05/17 04:55:38;;;;;;;13.48;12.18;;;16.30;99.90;;;-141.84;100.00;16813.19;5070730;28;20288;-65
2022/05/17 04:58:06;;;;;;;14.65;13.02;;;16.30;99.90;;;-141.84;100.00;16811.16;5070946;28;20201;-64
2022/05/17 05:00:34;;;;;;;14.68;13.05;;;16.30;99.90;;;-141.84;100.00;16809.13;5071387;28;20201;-63
2022/05/17 05:03:04;;;;;;;14.60;13.20;;;16.20;99.90;;;-141.84;100.00;16815.22;5071231;28;20222;-64
2022/05/17 05:05:33;;;;;;;14.25;12.68;;;16.30;99.90;;;-141.84;100.00;16821.31;5070689;28;20687;-64
2022/05/17 05:08:01;;;;;;;15.88;14.27;;;16.20;99.90;;;-141.84;100.00;16792.91;5071026;28;20197;-65
2022/05/17 05:10:29;;;;;;;14.27;12.80;;;16.20;99.90;;;-141.84;100.00;16831.47;5071028;28;20668;-64
2022/05/17 05:12:56;;;;;;;15.27;13.70;;;16.20;99.90;;;-141.84;100.00;16811.16;5071315;28;20296;-64
2022/05/17 05:15:24;;;;;;;16.48;14.70;;;16.10;99.90;;;-141.84;100.00;16790.88;5071434;28;20208;-64
2022/05/17 05:17:52;;;;;;;17.20;15.43;;;16.10;99.90;;;-141.84;100.00;16823.34;5071062;28;20253;-63
2022/05/17 05:20:22;;;;;;;18.33;16.33;;;16.10;99.90;;;-141.84;100.00;16782.75;5070379;28;20525;-65
2022/05/17 05:22:50;;;;;;;19.20;16.58;;;16.10;99.90;;;-141.84;100.00;16821.31;5070584;28;20571;-64
2022/05/17 05:25:18;;;;;;;17.00;15.07;;;16.10;99.90;;;-141.84;100.00;16799.00;5070858;28;20672;-64
2022/05/17 05:27:46;;;;;;;16.58;14.75;;;16.00;99.90;;;-141.84;100.00;16782.75;5070943;28;20264;-64
2022/05/17 05:30:17;;;;;;;16.85;15.15;;;16.10;99.90;;;-141.84;100.00;16788.84;5071118;28;20201;-64
2022/05/17 05:32:46;;;;;;;16.52;14.82;;;16.10;99.90;;;-141.84;100.00;16817.25;5071246;28;20263;-66
2022/05/17 05:35:16;;;;;;;18.63;16.05;;;16.00;99.90;;;-141.84;100.00;16835.53;5070999;28;20212;-64
2022/05/17 05:37:47;;;;;;;16.38;14.57;;;16.00;99.90;;;-141.84;100.00;16827.41;5071088;28;20272;-63
2022/05/17 05:40:16;;;;;;;17.65;15.95;;;16.00;99.90;;;-141.84;100.00;16823.34;5070906;28;20213;-64
2022/05/17 05:42:44;;;;;;;15.48;14.07;;;16.00;99.90;;;-141.84;100.00;16813.19;5070163;28;20197;-64
2022/05/17 05:45:13;;;;;;;16.50;14.80;;;16.00;99.90;;;-141.84;100.00;16807.13;5071017;28;20418;-63
2022/05/17 05:47:41;;;;;;;16.90;15.13;;;16.00;99.90;;;-141.84;100.00;16770.56;5070588;28;20256;-63
2022/05/17 05:50:10;;;;;;;15.93;14.32;;;16.00;99.90;;;-141.84;100.00;16756.34;5070573;28;20282;-64
2022/05/17 05:52:39;;;;;;;17.52;14.77;;;16.00;99.90;;;-141.84;100.00;16790.88;5070608;28;20687;-64
2022/05/17 05:55:17;;;;;;;17.75;14.57;;;15.90;99.90;;;-141.84;100.00;16807.13;5070827;28;20209;-63
2022/05/17 05:57:47;;;;;;;15.20;13.70;;;15.90;99.90;;;-141.84;100.00;16782.75;5070559;28;20322;-64
2022/05/17 06:00:17;;;;;;;20.27;15.63;;;16.00;99.90;;;-141.84;100.00;16768.53;5070880;28;20280;-62
2022/05/17 06:02:45;;;;;;;17.95;15.35;;;15.90;99.90;;;-141.84;100.00;16803.06;5070568;28;20637;-63
2022/05/17 06:05:14;;;;;;;17.05;14.85;;;16.00;99.90;;;-141.84;100.00;16790.88;5070709;28;20200;-63
2022/05/17 06:07:43;;;;;;;17.73;15.27;;;16.00;99.90;;;-141.84;100.00;16796.97;5071331;28;20319;-63
2022/05/17 06:10:15;;;;;;;17.75;15.15;;;16.00;99.90;;;-141.84;100.00;16780.72;5074258;28;20597;-63
2022/05/17 06:12:43;;;;;;;16.83;15.07;;;15.90;99.90;;;-141.84;100.00;16758.38;5074161;28;20276;-64
2022/05/17 06:15:14;;;;;;;17.33;15.52;;;16.00;99.90;;;-141.84;100.00;16786.81;5074247;28;20215;-64
2022/05/17 06:17:49;;;;;;;17.10;15.32;;;15.90;99.90;;;-141.84;100.00;16784.78;5074057;28;20192;-63
2022/05/17 06:20:18;;;;;;;19.70;16.15;;;15.90;99.90;;;-141.84;100.00;16768.53;5074143;28;20204;-63
2022/05/17 06:22:46;;;;;;;19.80;16.52;;;15.90;99.90;;;-141.84;100.00;16790.88;5074093;28;20228;-63
2022/05/17 06:25:16;;;;;;;19.30;16.15;;;15.90;99.90;;;-141.84;100.00;16782.75;5073904;28;20295;-63
2022/05/17 06:27:45;;;;;;;18.20;16.27;;;15.90;99.90;;;-141.84;100.00;16794.94;5073746;28;20219;-63
2022/05/17 06:30:14;;;;;;;18.13;16.17;;;16.00;99.90;;;-141.84;100.00;16801.03;5073378;28;20291;-64
2022/05/17 06:32:42;;;;;;;18.27;16.30;;;15.90;99.90;;;-141.84;100.00;16796.97;5072807;28;20201;-62
2022/05/17 06:35:12;;;;;;;19.00;17.00;;;15.90;99.90;;;-141.84;100.00;16760.41;5071153;28;20291;-63
2022/05/17 06:37:40;;;;;;;20.48;16.15;;;16.00;99.90;;;-141.84;100.00;16792.91;5072907;28;20698;-60
2022/05/17 06:40:10;;;;;;;18.90;16.92;;;16.00;99.90;;;-141.84;100.00;16790.88;5072224;28;20265;-63
2022/05/17 06:42:39;;;;;;;17.30;15.13;;;16.10;99.90;;;-141.84;100.00;16774.63;5073738;28;20283;-62
2022/05/17 06:45:09;;;;;;;19.92;17.73;;;16.20;99.90;;;-141.84;100.00;16796.97;5073388;28;20197;-62
2022/05/17 06:47:37;;;;;;;19.45;17.52;;;16.10;99.90;;;-141.84;100.00;16784.78;5073492;28;20255;-64
2022/05/17 06:50:07;;;;;;;19.58;17.48;;;16.10;99.90;;;-141.84;100.00;16825.38;5073268;28;20204;-64
2022/05/17 06:52:35;;;;;;;20.23;17.15;;;16.10;99.90;;;-141.84;100.00;16786.81;5072106;28;20208;-64
2022/05/17 06:55:04;;;;;;;19.10;17.10;;;16.20;99.90;;;-141.84;100.00;16742.13;5073146;28;20201;-63
2022/05/17 06:57:32;;;;;;;22.13;18.27;;;16.20;99.90;;;-141.84;100.00;16796.97;5073301;28;20596;-62
2022/05/17 07:00:01;;;;;;;19.48;17.45;;;16.20;99.90;;;-141.84;100.00;16815.22;5073501;28;20296;-63
2022/05/17 07:02:29;;;;;;;21.30;17.65;;;16.20;99.90;;;-141.84;100.00;16803.06;5073046;28;20204;-64
2022/05/17 07:04:57;;;;;;;21.48;18.75;;;16.30;99.90;;;-141.84;100.00;16792.91;5073388;28;20209;-63
2022/05/17 07:07:26;;;;;;;21.65;19.27;;;16.40;99.90;;;-141.84;100.00;16837.56;5073036;28;20224;-62
2022/05/17 07:15:26;;;;;;;26.58;21.95;;;16.40;99.90;;;-141.84;100.00;16768.53;5073347;28;20191;-63
2022/05/17 07:17:54;;;;;;;24.52;21.60;;;16.40;99.90;;;-141.84;100.00;16788.84;5073203;28;20207;-62
2022/05/17 07:20:23;;;;;;;24.55;20.90;;;16.60;99.90;;;-141.84;100.00;16756.34;5072395;28;20285;-63
2022/05/17 07:22:51;;;;;;;25.83;22.33;;;16.40;99.90;;;-141.84;100.00;16788.84;5072859;28;20273;-64
2022/05/17 07:25:19;;;;;;;25.48;22.33;;;16.30;99.90;;;-141.84;100.00;16807.13;5072962;28;20201;-63
2022/05/17 07:27:48;;;;;;;26.55;22.40;;;16.30;99.90;;;-141.84;100.00;16819.28;5073076;28;20248;-64
2022/05/17 07:30:16;;;;;;;28.48;24.23;;;16.40;99.90;;;-141.84;100.00;16790.88;5073048;28;20291;-63
2022/05/17 07:32:46;;;;;;;27.27;23.30;;;16.30;99.90;;;-141.84;100.00;16813.19;5072900;28;20226;-63
2022/05/17 07:35:14;;;;;;;30.10;24.02;;;16.30;99.90;;;-141.84;100.00;16807.13;5072942;28;20211;-62
2022/05/17 07:37:43;;;;;;;28.75;23.55;;;16.40;99.90;;;-141.84;100.00;16778.69;5072546;28;20215;-63
2022/05/17 07:40:13;;;;;;;28.73;25.25;;;16.40;99.90;;;-141.84;100.00;16788.84;5072330;28;20209;-63
2022/05/17 07:42:41;;;;;;;32.45;26.92;;;16.40;99.90;;;-141.84;100.00;16792.91;5072674;28;20203;-64
2022/05/17 07:45:12;;;;;;;31.02;26.10;;;16.40;99.90;;;-141.84;100.00;16792.91;5072745;28;20197;-63
2022/05/17 07:47:41;;;;;;;33.45;24.77;;;16.50;99.90;;;-141.84;100.00;16807.13;5072327;28;20300;-62
2022/05/17 07:50:11;;;;;;;27.92;23.92;;;16.60;99.90;;;-141.84;100.00;16811.16;5072644;28;20629;-64
2022/05/17 07:52:41;;;;;;;32.33;26.75;;;16.70;99.90;;;-141.84;100.00;16778.69;5071985;28;20287;-63
2022/05/17 07:55:11;;;;;;;30.33;24.63;;;16.80;99.90;;;-141.84;100.00;16766.50;5072120;28;20739;-63
2022/05/17 07:57:39;;;;;;;28.67;24.40;;;16.90;99.90;;;-141.84;100.00;16770.56;5072128;28;20647;-63
2022/05/17 08:00:10;;;;;;;29.45;24.60;;;17.00;99.90;;;-141.84;100.00;16772.59;5072354;28;20201;-64
2022/05/17 08:02:38;;;;;;;29.52;23.73;;;17.10;99.90;;;-141.84;99.02;16780.72;5072319;28;20200;-63
2022/05/17 08:05:09;;;;;;;27.65;23.65;;;17.20;99.90;;;-141.84;97.61;16819.28;5072123;28;20204;-63
2022/05/17 08:07:39;;;;;;;28.20;24.25;;;17.40;99.90;;;-141.84;96.13;16859.91;5071932;28;20237;-63
2022/05/17 08:10:09;;;;;;;28.10;24.00;;;17.50;99.90;;;-141.84;95.13;16878.19;5072236;28;20204;-63
2022/05/17 08:12:37;;;;;;;28.63;24.92;;;17.80;99.90;;;-141.84;94.38;16892.41;5072176;28;20208;-63
2022/05/17 08:15:06;;;;;;;26.48;23.10;;;17.90;99.90;;;-141.84;92.20;17008.16;5071954;28;20410;-63
2022/05/17 08:17:34;;;;;;;29.10;21.80;;;18.30;99.90;;;-141.84;88.16;17188.91;5071765;28;20548;-62
2022/05/17 08:20:02;;;;;;;25.05;22.35;;;18.60;99.90;;;-141.84;83.37;17392.03;5071952;28;20205;-63
2022/05/17 08:22:30;;;;;;;22.10;19.80;;;18.90;99.90;;;-141.84;84.66;17365.63;5071649;28;20207;-63
2022/05/17 08:27:46;;;;;;;27.05;21.48;;;19.40;99.90;;;-141.84;78.37;17645.91;5072407;28;20211;-63
2022/05/17 08:30:19;;;;;;;23.80;20.08;;;19.70;99.90;;;-141.84;75.11;17844.97;5071497;28;20300;-63
2022/05/17 08:35:40;;;;;;;22.75;20.15;;;20.10;99.90;;;-141.84;75.26;17838.88;5071453;28;20235;-63
2022/05/17 08:38:11;;;;;;;21.90;19.60;;;20.10;99.90;;;-141.84;77.37;17704.81;5070604;28;20247;-60
2022/05/17 08:40:56;;;;;;;20.33;18.27;;;19.90;99.90;;;-141.84;78.99;17649.97;5070849;28;20283;-59
2022/05/17 08:43:31;;;;;;;22.88;20.45;;;19.70;99.90;;;-141.84;81.13;17550.44;5069972;28;20189;-60
2022/05/17 08:46:27;;;;;;;21.95;19.65;;;19.70;99.90;;;-141.84;79.24;17688.56;5071071;28;20188;-60
2022/05/17 08:49:02;;;;;;;22.13;19.58;;;19.80;99.90;;;-141.84;79.06;17664.19;5070119;28;20246;-64
2022/05/17 08:51:40;;;;;;;21.42;19.20;;;20.00;99.90;;;-141.84;73.64;18005.47;5071797;28;20272;-64
2022/05/17 08:54:14;;;;;;;20.05;17.90;;;20.50;99.90;;;-141.84;70.94;18159.84;5070675;28;20636;-65
2022/05/17 08:56:51;;;;;;;17.15;15.45;;;20.80;99.90;;;-141.84;71.00;18178.13;5071726;28;20219;-64
2022/05/17 08:59:24;;;;;;;18.90;16.90;;;21.00;99.90;;;-141.84;70.63;18172.03;5071189;28;20185;-64
2022/05/17 09:02:00;;;;;;;19.13;17.13;;;20.90;99.90;;;-141.84;71.19;18143.59;5071283;28;20319;-64
2022/05/17 09:05:09;;;;;;;19.02;17.23;;;20.90;99.90;;;-141.84;74.19;17979.06;5071185;28;20675;-64
2022/05/17 09:07:51;;;;;;;16.80;15.18;;;20.60;99.90;;;-141.84;74.78;17881.53;5070697;28;20202;-64
2022/05/17 09:10:33;;;;;;;14.18;12.88;;;20.40;99.90;;;-141.84;77.14;17755.59;5071124;28;20191;-64
2022/05/17 09:13:12;;;;;;;16.67;14.90;;;20.20;99.90;;;-141.84;75.70;17863.25;5071031;28;20578;-63
2022/05/17 09:15:40;;;;;;;17.35;15.57;;;20.10;99.90;;;-141.84;74.17;17903.88;5070701;28;20573;-63
2022/05/17 09:18:14;;;;;;;17.23;15.43;;;20.10;99.90;;;-141.84;70.83;18090.78;5071329;28;20204;-63
2022/05/17 09:20:43;;;;;;;15.77;14.23;;;20.30;99.90;;;-141.84;72.97;17975.00;5071224;28;20706;-64
2022/05/17 09:23:11;;;;;;;16.85;14.88;;;20.40;99.90;;;-141.84;73.42;17940.47;5071084;28;20287;-64
2022/05/17 09:25:51;;;;;;;15.45;13.82;;;20.40;99.90;;;-141.84;75.63;17871.38;5071740;28;20247;-66
2022/05/17 09:28:43;;;;;;;17.08;15.27;;;20.20;99.90;;;-141.84;75.57;17855.13;5072223;28;20205;-68
2022/05/17 09:31:17;;;;;;;15.07;13.65;;;20.10;99.90;;;-141.84;75.62;17808.41;5071674;28;20224;-65
2022/05/17 09:33:45;;;;;;;14.52;12.30;;;20.00;99.90;;;-141.84;72.11;18066.41;5072283;28;20185;-67
2022/05/17 09:36:20;;;;;;;16.05;14.45;;;20.20;99.90;;;-141.84;72.57;18017.66;5072119;28;20292;-64
2022/05/17 09:38:52;;;;;;;13.43;12.10;;;20.30;99.90;;;-141.84;68.41;18192.34;5070444;28;20200;-63
2022/05/17 09:41:26;;;;;;;13.75;12.35;;;20.50;99.90;;;-141.84;67.12;18237.06;5070938;28;20739;-61
2022/05/17 09:44:03;;;;;;;14.15;12.60;;;20.70;99.90;;;-141.84;69.21;18184.22;5073978;28;20272;-61
2022/05/17 09:46:35;;;;;;;13.93;12.52;;;20.80;99.90;;;-141.84;68.47;18178.13;5075185;28;20622;-61
2022/05/17 09:55:12;;;;;;;15.68;14.07;;;20.20;99.90;;;-141.84;71.48;17999.38;5067545;28;20211;-62
2022/05/17 09:57:58;;;;;;;15.18;13.88;;;20.10;99.90;;;-141.84;70.18;18139.53;5074959;28;20284;-62
2022/05/17 10:00:33;;;;;;;14.35;12.95;;;20.40;99.90;;;-141.84;69.23;18139.53;5074916;28;20204;-63
2022/05/17 10:03:04;;;;;;;13.15;11.80;;;20.60;99.90;;;-141.84;64.02;18365.03;5074859;28;20223;-63
2022/05/17 10:05:47;;;;;;;11.80;10.70;;;20.90;99.90;;;-141.84;61.68;18511.31;5074349;28;20673;-63
2022/05/17 10:08:41;;;;;;;11.57;10.45;;;21.40;99.90;;;-141.84;61.74;18521.47;5074556;28;20291;-64
2022/05/17 10:11:21;;;;;;;12.27;11.07;;;21.60;99.90;;;-141.84;62.74;18484.91;5074597;28;20260;-66
2022/05/17 10:14:11;;;;;;;11.77;10.68;;;21.70;99.90;;;-141.84;63.18;18440.22;5074901;28;20276;-64
2022/05/17 10:16:49;;;;;;;12.60;10.05;;;21.70;99.90;;;-141.84;63.74;18464.59;5074510;28;20220;-62
2022/05/17 10:19:39;;;;;;;10.63;9.63;;;21.70;99.90;;;-141.84;63.93;18428.03;5074201;28;20177;-65
2022/05/17 10:22:22;;;;;;;11.32;10.27;;;21.50;99.90;;;-141.84;60.15;18553.97;5074201;28;20276;-63
2022/05/17 10:24:58;;;;;;;11.40;10.20;;;21.50;99.90;;;-141.84;62.00;18493.03;5074306;28;20268;-64